Aviation Digital Data Service (ADDS)

Output produced by METARs form (1533 UTC 20 March 2019)
found at http://www.aviationweather.gov/metar/data/
 
METAR text: ZGKL 201500Z 30002MPS 240V350 6000 BKN040 OVC060 21/20 Q1008 NOSIG
Conditions at: ZGKL (GUILIN , CN) observed 1500 UTC 20 March 2019
Temperature: 21.0°C (70°F)
Dewpoint: 20.0°C (68°F) [RH = 94%]
Pressure (altimeter): 29.76 inches Hg (1008.0 mb)
Winds: from the WNW (300 degrees) at 5 MPH (4 knots; 2.1 m/s)
Visibility: 4 miles ( 6 km)
Ceiling: 4000 feet AGL
Clouds: broken clouds at 4000 feet AGL
overcast cloud deck at 6000 feet AGL
Weather: no significant weather observed at this time

METAR text: ZGKL 201400Z VRB01MPS 8000 BKN040 OVC060 23/20 Q1008 NOSIG
Conditions at: ZGKL (GUILIN , CN) observed 1400 UTC 20 March 2019
Temperature: 23.0°C (73°F)
Dewpoint: 20.0°C (68°F) [RH = 83%]
Pressure (altimeter): 29.76 inches Hg (1008.0 mb)
Winds: variable direction winds at 2 MPH (2 knots; 1.0 m/s)
Visibility: 5 miles ( 8 km)
Ceiling: 4000 feet AGL
Clouds: broken clouds at 4000 feet AGL
overcast cloud deck at 6000 feet AGL
Weather: no significant weather observed at this time

METAR text: ZGKL 201300Z 16004MPS 9999 BKN040 OVC060 24/20 Q1008 NOSIG
Conditions at: ZGKL (GUILIN , CN) observed 1300 UTC 20 March 2019
Temperature: 24.0°C (75°F)
Dewpoint: 20.0°C (68°F) [RH = 78%]
Pressure (altimeter): 29.76 inches Hg (1008.0 mb)
Winds: from the SSE (160 degrees) at 9 MPH (8 knots; 4.1 m/s)
Visibility: 6 or more miles (10+ km)
Ceiling: 4000 feet AGL
Clouds: broken clouds at 4000 feet AGL
overcast cloud deck at 6000 feet AGL
Weather: no significant weather observed at this time

METAR text: ZGKL 201200Z 17005MPS 9999 BKN036 OVC053 24/21 Q1007 NOSIG
Conditions at: ZGKL (GUILIN , CN) observed 1200 UTC 20 March 2019
Temperature: 24.0°C (75°F)
Dewpoint: 21.0°C (70°F) [RH = 83%]
Pressure (altimeter): 29.73 inches Hg (1007.0 mb)
Winds: from the S (170 degrees) at 12 MPH (10 knots; 5.1 m/s)
Visibility: 6 or more miles (10+ km)
Ceiling: 3600 feet AGL
Clouds: broken clouds at 3600 feet AGL
overcast cloud deck at 5300 feet AGL
Weather: no significant weather observed at this time

METAR text: ZGKL 201100Z 17004MPS 9999 BKN033 OVC053 25/21 Q1006 NOSIG
Conditions at: ZGKL (GUILIN , CN) observed 1100 UTC 20 March 2019
Temperature: 25.0°C (77°F)
Dewpoint: 21.0°C (70°F) [RH = 79%]
Pressure (altimeter): 29.70 inches Hg (1006.0 mb)
Winds: from the S (170 degrees) at 9 MPH (8 knots; 4.1 m/s)
Visibility: 6 or more miles (10+ km)
Ceiling: 3300 feet AGL
Clouds: broken clouds at 3300 feet AGL
overcast cloud deck at 5300 feet AGL
Weather: no significant weather observed at this time

METAR text: ZGKL 201000Z 18006MPS 9999 BKN033 BKN053 25/21 Q1006 NOSIG
Conditions at: ZGKL (GUILIN , CN) observed 1000 UTC 20 March 2019
Temperature: 25.0°C (77°F)
Dewpoint: 21.0°C (70°F) [RH = 79%]
Pressure (altimeter): 29.70 inches Hg (1006.0 mb)
Winds: from the S (180 degrees) at 14 MPH (12 knots; 6.2 m/s)
Visibility: 6 or more miles (10+ km)
Ceiling: 3300 feet AGL
Clouds: broken clouds at 3300 feet AGL
broken clouds at 5300 feet AGL
Weather: no significant weather observed at this time

METAR text: ZGKL 200900Z 18006MPS 9999 SCT033 BKN053 25/21 Q1006 NOSIG
Conditions at: ZGKL (GUILIN , CN) observed 0900 UTC 20 March 2019
Temperature: 25.0°C (77°F)
Dewpoint: 21.0°C (70°F) [RH = 79%]
Pressure (altimeter): 29.70 inches Hg (1006.0 mb)
Winds: from the S (180 degrees) at 14 MPH (12 knots; 6.2 m/s)
Visibility: 6 or more miles (10+ km)
Ceiling: 5300 feet AGL
Clouds: scattered clouds at 3300 feet AGL
broken clouds at 5300 feet AGL
Weather: no significant weather observed at this time

METAR text: ZGKL 200800Z 18007MPS 9999 SCT033 OVC056 26/21 Q1006 NOSIG
Conditions at: ZGKL (GUILIN , CN) observed 0800 UTC 20 March 2019
Temperature: 26.0°C (79°F)
Dewpoint: 21.0°C (70°F) [RH = 74%]
Pressure (altimeter): 29.70 inches Hg (1006.0 mb)
Winds: from the S (180 degrees) at 16 MPH (14 knots; 7.2 m/s)
Visibility: 6 or more miles (10+ km)
Ceiling: 5600 feet AGL
Clouds: scattered clouds at 3300 feet AGL
overcast cloud deck at 5600 feet AGL
Weather: no significant weather observed at this time

METAR text: ZGKL 200700Z 19006MPS 160V220 9999 SCT033 OVC056 26/21 Q1006 NOSIG
Conditions at: ZGKL (GUILIN , CN) observed 0700 UTC 20 March 2019
Temperature: 26.0°C (79°F)
Dewpoint: 21.0°C (70°F) [RH = 74%]
Pressure (altimeter): 29.70 inches Hg (1006.0 mb)
Winds: from the S (190 degrees) at 14 MPH (12 knots; 6.2 m/s)
Visibility: 6 or more miles (10+ km)
Ceiling: 5600 feet AGL
Clouds: scattered clouds at 3300 feet AGL
overcast cloud deck at 5600 feet AGL
Weather: no significant weather observed at this time

METAR text: ZGKL 200600Z 18006MPS 9999 SCT036 OVC053 25/21 Q1008 NOSIG
Conditions at: ZGKL (GUILIN , CN) observed 0600 UTC 20 March 2019
Temperature: 25.0°C (77°F)
Dewpoint: 21.0°C (70°F) [RH = 79%]
Pressure (altimeter): 29.76 inches Hg (1008.0 mb)
Winds: from the S (180 degrees) at 14 MPH (12 knots; 6.2 m/s)
Visibility: 6 or more miles (10+ km)
Ceiling: 5300 feet AGL
Clouds: scattered clouds at 3600 feet AGL
overcast cloud deck at 5300 feet AGL
Weather: no significant weather observed at this time

METAR text: ZGKL 200500Z 19006MPS 9999 BKN033 OVC050 25/20 Q1009 NOSIG
Conditions at: ZGKL (GUILIN , CN) observed 0500 UTC 20 March 2019
Temperature: 25.0°C (77°F)
Dewpoint: 20.0°C (68°F) [RH = 74%]
Pressure (altimeter): 29.79 inches Hg (1009.0 mb)
Winds: from the S (190 degrees) at 14 MPH (12 knots; 6.2 m/s)
Visibility: 6 or more miles (10+ km)
Ceiling: 3300 feet AGL
Clouds: broken clouds at 3300 feet AGL
overcast cloud deck at 5000 feet AGL
Weather: no significant weather observed at this time

METAR text: ZGKL 200400Z 19008MPS 9999 BKN033 OVC050 25/20 Q1009 NOSIG
Conditions at: ZGKL (GUILIN , CN) observed 0400 UTC 20 March 2019
Temperature: 25.0°C (77°F)
Dewpoint: 20.0°C (68°F) [RH = 74%]
Pressure (altimeter): 29.79 inches Hg (1009.0 mb)
Winds: from the S (190 degrees) at 18 MPH (16 knots; 8.2 m/s)
Visibility: 6 or more miles (10+ km)
Ceiling: 3300 feet AGL
Clouds: broken clouds at 3300 feet AGL
overcast cloud deck at 5000 feet AGL
Weather: no significant weather observed at this time

METAR text: ZGKL 200300Z 18006MPS 9999 BKN030 OVC050 24/20 Q1010 NOSIG
Conditions at: ZGKL (GUILIN , CN) observed 0300 UTC 20 March 2019
Temperature: 24.0°C (75°F)
Dewpoint: 20.0°C (68°F) [RH = 78%]
Pressure (altimeter): 29.82 inches Hg (1010.0 mb)
Winds: from the S (180 degrees) at 14 MPH (12 knots; 6.2 m/s)
Visibility: 6 or more miles (10+ km)
Ceiling: 3000 feet AGL
Clouds: broken clouds at 3000 feet AGL
overcast cloud deck at 5000 feet AGL
Weather: no significant weather observed at this time

METAR text: ZGKL 200200Z 18008MPS 9999 BKN030 OVC050 24/20 Q1010 NOSIG
Conditions at: ZGKL (GUILIN , CN) observed 0200 UTC 20 March 2019
Temperature: 24.0°C (75°F)
Dewpoint: 20.0°C (68°F) [RH = 78%]
Pressure (altimeter): 29.82 inches Hg (1010.0 mb)
Winds: from the S (180 degrees) at 18 MPH (16 knots; 8.2 m/s)
Visibility: 6 or more miles (10+ km)
Ceiling: 3000 feet AGL
Clouds: broken clouds at 3000 feet AGL
overcast cloud deck at 5000 feet AGL
Weather: no significant weather observed at this time

METAR text: ZGKL 200100Z 19008MPS 9999 SCT016 SCT030 OVC050 23/20 Q1010 NOSIG
Conditions at: ZGKL (GUILIN , CN) observed 0100 UTC 20 March 2019
Temperature: 23.0°C (73°F)
Dewpoint: 20.0°C (68°F) [RH = 83%]
Pressure (altimeter): 29.82 inches Hg (1010.0 mb)
Winds: from the S (190 degrees) at 18 MPH (16 knots; 8.2 m/s)
Visibility: 6 or more miles (10+ km)
Ceiling: 5000 feet AGL
Clouds: scattered clouds at 1600 feet AGL
scattered clouds at 3000 feet AGL
overcast cloud deck at 5000 feet AGL
Weather: no significant weather observed at this time

METAR text: ZGKL 200000Z 18008MPS 6000 SCT016 SCT030 OVC050 22/19 Q1010 NOSIG
Conditions at: ZGKL (GUILIN , CN) observed 0000 UTC 20 March 2019
Temperature: 22.0°C (72°F)
Dewpoint: 19.0°C (66°F) [RH = 83%]
Pressure (altimeter): 29.82 inches Hg (1010.0 mb)
Winds: from the S (180 degrees) at 18 MPH (16 knots; 8.2 m/s)
Visibility: 4 miles ( 6 km)
Ceiling: 5000 feet AGL
Clouds: scattered clouds at 1600 feet AGL
scattered clouds at 3000 feet AGL
overcast cloud deck at 5000 feet AGL
Weather: no significant weather observed at this time

METAR text: ZGKL 192300Z 18007MPS 6000 SCT016 SCT030 OVC053 22/19 Q1009 NOSIG
Conditions at: ZGKL (GUILIN , CN) observed 2300 UTC 19 March 2019
Temperature: 22.0°C (72°F)
Dewpoint: 19.0°C (66°F) [RH = 83%]
Pressure (altimeter): 29.79 inches Hg (1009.0 mb)
Winds: from the S (180 degrees) at 16 MPH (14 knots; 7.2 m/s)
Visibility: 4 miles ( 6 km)
Ceiling: 5300 feet AGL
Clouds: scattered clouds at 1600 feet AGL
scattered clouds at 3000 feet AGL
overcast cloud deck at 5300 feet AGL
Weather: no significant weather observed at this time

METAR text: ZGKL 192200Z 19006MPS 5000 BR BKN033 OVC053 22/19 Q1008 NOSIG
Conditions at: ZGKL (GUILIN , CN) observed 2200 UTC 19 March 2019
Temperature: 22.0°C (72°F)
Dewpoint: 19.0°C (66°F) [RH = 83%]
Pressure (altimeter): 29.76 inches Hg (1008.0 mb)
Winds: from the S (190 degrees) at 14 MPH (12 knots; 6.2 m/s)
Visibility: 3 miles ( 5 km)
Ceiling: 3300 feet AGL
Clouds: broken clouds at 3300 feet AGL
overcast cloud deck at 5300 feet AGL
Weather: BR  (mist)

METAR text: ZGKL 192100Z 18007MPS 4500 BR BKN033 OVC053 22/19 Q1008 NOSIG
Conditions at: ZGKL (GUILIN , CN) observed 2100 UTC 19 March 2019
Temperature: 22.0°C (72°F)
Dewpoint: 19.0°C (66°F) [RH = 83%]
Pressure (altimeter): 29.76 inches Hg (1008.0 mb)
Winds: from the S (180 degrees) at 16 MPH (14 knots; 7.2 m/s)
Visibility: 2.80 miles (4.51 km)
Ceiling: 3300 feet AGL
Clouds: broken clouds at 3300 feet AGL
overcast cloud deck at 5300 feet AGL
Weather: BR  (mist)

METAR text: ZGKL 192000Z 22002MPS 160V270 3500 BR BKN033 OVC053 17/17 Q1008 NOSIG
Conditions at: ZGKL (GUILIN , CN) observed 2000 UTC 19 March 2019
Temperature: 17.0°C (63°F)
Dewpoint: 17.0°C (63°F) [RH = 100%]
Pressure (altimeter): 29.76 inches Hg (1008.0 mb)
Winds: from the SW (220 degrees) at 5 MPH (4 knots; 2.1 m/s)
Visibility: 2.17 miles (3.49 km)
Ceiling: 3300 feet AGL
Clouds: broken clouds at 3300 feet AGL
overcast cloud deck at 5300 feet AGL
Weather: BR  (mist)

METAR text: ZGKL 191900Z VRB01MPS 3500 BR BKN033 OVC053 17/17 Q1009 NOSIG
Conditions at: ZGKL (GUILIN , CN) observed 1900 UTC 19 March 2019
Temperature: 17.0°C (63°F)
Dewpoint: 17.0°C (63°F) [RH = 100%]
Pressure (altimeter): 29.79 inches Hg (1009.0 mb)
Winds: variable direction winds at 2 MPH (2 knots; 1.0 m/s)
Visibility: 2.17 miles (3.49 km)
Ceiling: 3300 feet AGL
Clouds: broken clouds at 3300 feet AGL
overcast cloud deck at 5300 feet AGL
Weather: BR  (mist)

METAR text: ZGKL 191800Z 00000MPS 3300 BR BKN036 OVC053 17/16 Q1009 NOSIG
Conditions at: ZGKL (GUILIN , CN) observed 1800 UTC 19 March 2019
Temperature: 17.0°C (63°F)
Dewpoint: 16.0°C (61°F) [RH = 94%]
Pressure (altimeter): 29.79 inches Hg (1009.0 mb)
Winds: calm
Visibility: 2.05 miles (3.30 km)
Ceiling: 3600 feet AGL
Clouds: broken clouds at 3600 feet AGL
overcast cloud deck at 5300 feet AGL
Weather: BR  (mist)

METAR text: ZGKL 191700Z 00000MPS 3500 BR FEW011 SCT026 OVC053 17/16 Q1010 NOSIG
Conditions at: ZGKL (GUILIN , CN) observed 1700 UTC 19 March 2019
Temperature: 17.0°C (63°F)
Dewpoint: 16.0°C (61°F) [RH = 94%]
Pressure (altimeter): 29.82 inches Hg (1010.0 mb)
Winds: calm
Visibility: 2.17 miles (3.49 km)
Ceiling: 5300 feet AGL
Clouds: few clouds at 1100 feet AGL
scattered clouds at 2600 feet AGL
overcast cloud deck at 5300 feet AGL
Weather: BR  (mist)

METAR text: ZGKL 191600Z VRB01MPS 3700 BR FEW013 SCT026 OVC053 17/16 Q1010 NOSIG
Conditions at: ZGKL (GUILIN , CN) observed 1600 UTC 19 March 2019
Temperature: 17.0°C (63°F)
Dewpoint: 16.0°C (61°F) [RH = 94%]
Pressure (altimeter): 29.82 inches Hg (1010.0 mb)
Winds: variable direction winds at 2 MPH (2 knots; 1.0 m/s)
Visibility: 2.30 miles (3.70 km)
Ceiling: 5300 feet AGL
Clouds: few clouds at 1300 feet AGL
scattered clouds at 2600 feet AGL
overcast cloud deck at 5300 feet AGL
Weather: BR  (mist)

METAR text: ZGKL 191500Z 31002MPS 280V340 3000 BR FEW010 SCT026 OVC046 17/16 Q1010 NOSIG
Conditions at: ZGKL (GUILIN , CN) observed 1500 UTC 19 March 2019
Temperature: 17.0°C (63°F)
Dewpoint: 16.0°C (61°F) [RH = 94%]
Pressure (altimeter): 29.82 inches Hg (1010.0 mb)
Winds: from the NW (310 degrees) at 5 MPH (4 knots; 2.1 m/s)
Visibility: 1.86 miles (2.99 km)
Ceiling: 4600 feet AGL
Clouds: few clouds at 1000 feet AGL
scattered clouds at 2600 feet AGL
overcast cloud deck at 4600 feet AGL
Weather: BR  (mist)

METAR text: ZGKL 191400Z 00000MPS 3000 BR SCT013 OVC043 17/16 Q1010 NOSIG
Conditions at: ZGKL (GUILIN , CN) observed 1400 UTC 19 March 2019
Temperature: 17.0°C (63°F)
Dewpoint: 16.0°C (61°F) [RH = 94%]
Pressure (altimeter): 29.82 inches Hg (1010.0 mb)
Winds: calm
Visibility: 1.86 miles (2.99 km)
Ceiling: 4300 feet AGL
Clouds: scattered clouds at 1300 feet AGL
overcast cloud deck at 4300 feet AGL
Weather: BR  (mist)

METAR text: ZGKL 191300Z VRB01MPS 4700 BR SCT016 BKN050 17/16 Q1010 NOSIG
Conditions at: ZGKL (GUILIN , CN) observed 1300 UTC 19 March 2019
Temperature: 17.0°C (63°F)
Dewpoint: 16.0°C (61°F) [RH = 94%]
Pressure (altimeter): 29.82 inches Hg (1010.0 mb)
Winds: variable direction winds at 2 MPH (2 knots; 1.0 m/s)
Visibility: 2.92 miles (4.70 km)
Ceiling: 5000 feet AGL
Clouds: scattered clouds at 1600 feet AGL
broken clouds at 5000 feet AGL
Weather: BR  (mist)

METAR text: ZGKL 191200Z 02003MPS 5000 BR BKN017 BKN066 17/16 Q1010 NOSIG
Conditions at: ZGKL (GUILIN , CN) observed 1200 UTC 19 March 2019
Temperature: 17.0°C (63°F)
Dewpoint: 16.0°C (61°F) [RH = 94%]
Pressure (altimeter): 29.82 inches Hg (1010.0 mb)
Winds: from the NNE (20 degrees) at 7 MPH (6 knots; 3.1 m/s)
Visibility: 3 miles ( 5 km)
Ceiling: 1700 feet AGL
Clouds: broken clouds at 1700 feet AGL
broken clouds at 6600 feet AGL
Weather: BR  (mist)

METAR text: ZGKL 191100Z 04002MPS 4000 BR FEW003 SCT023 BKN060 17/16 Q1010 NOSIG
Conditions at: ZGKL (GUILIN , CN) observed 1100 UTC 19 March 2019
Temperature: 17.0°C (63°F)
Dewpoint: 16.0°C (61°F) [RH = 94%]
Pressure (altimeter): 29.82 inches Hg (1010.0 mb)
Winds: from the NE (40 degrees) at 5 MPH (4 knots; 2.1 m/s)
Visibility: 2.49 miles (4.01 km)
Ceiling: 6000 feet AGL
Clouds: few clouds at 300 feet AGL
scattered clouds at 2300 feet AGL
broken clouds at 6000 feet AGL
Weather: BR  (mist)

METAR text: ZGKL 191000Z VRB01MPS 3000 BR FEW005 SCT026 17/16 Q1010 NOSIG
Conditions at: ZGKL (GUILIN , CN) observed 1000 UTC 19 March 2019
Temperature: 17.0°C (63°F)
Dewpoint: 16.0°C (61°F) [RH = 94%]
Pressure (altimeter): 29.82 inches Hg (1010.0 mb)
Winds: variable direction winds at 2 MPH (2 knots; 1.0 m/s)
Visibility: 1.86 miles (2.99 km)
Ceiling: at least 12,000 feet AGL
Clouds: few clouds at 500 feet AGL
scattered clouds at 2600 feet AGL
Weather: BR  (mist)

METAR text: ZGKL 190900Z 00000MPS 4500 BR FEW004 SCT020 OVC056 17/16 Q1009 RETSRA NOSIG
Conditions at: ZGKL (GUILIN , CN) observed 0900 UTC 19 March 2019
Temperature: 17.0°C (63°F)
Dewpoint: 16.0°C (61°F) [RH = 94%]
Pressure (altimeter): 29.79 inches Hg (1009.0 mb)
Winds: calm
Visibility: 2.80 miles (4.51 km)
Ceiling: 5600 feet AGL
Clouds: few clouds at 400 feet AGL
scattered clouds at 2000 feet AGL
overcast cloud deck at 5600 feet AGL
Weather: BR  (mist)

METAR text: ZGKL 190800Z 26003MPS 200V280 1200 R01/1900 TSRA BR FEW002 SCT011 BKN030 FEW030CB 16/15 Q1011 BECMG FM1000 1800 -RA
Conditions at: ZGKL (GUILIN , CN) observed 0800 UTC 19 March 2019
Temperature: 16.0°C (61°F)
Dewpoint: 15.0°C (59°F) [RH = 94%]
Pressure (altimeter): 29.85 inches Hg (1011.0 mb)
Winds: from the W (260 degrees) at 7 MPH (6 knots; 3.1 m/s)
Visibility: 0.75 miles (1.21 km)
Ceiling: 3000 feet AGL
Clouds: few clouds at 200 feet AGL
scattered clouds at 1100 feet AGL
broken clouds at 3000 feet AGL
few clouds at 3000 feet AGL
Weather: TSRA BR  (rain associated with thunderstorm(s), mist)

METAR text: ZGKL 190700Z 00000MPS 1500 -RA BR FEW003 SCT011 OVC033 16/15 Q1011 BECMG FM0800 1300
Conditions at: ZGKL (GUILIN , CN) observed 0700 UTC 19 March 2019
Temperature: 16.0°C (61°F)
Dewpoint: 15.0°C (59°F) [RH = 94%]
Pressure (altimeter): 29.85 inches Hg (1011.0 mb)
Winds: calm
Visibility: 0.93 miles (1.50 km)
Ceiling: 3300 feet AGL
Clouds: few clouds at 300 feet AGL
scattered clouds at 1100 feet AGL
overcast cloud deck at 3300 feet AGL
Weather: -RA BR  (light rain, mist)

METAR text: ZGKL 190600Z 00000MPS 1600 -RA BR FEW004 SCT011 OVC033 16/15 Q1012 NOSIG
Conditions at: ZGKL (GUILIN , CN) observed 0600 UTC 19 March 2019
Temperature: 16.0°C (61°F)
Dewpoint: 15.0°C (59°F) [RH = 94%]
Pressure (altimeter): 29.88 inches Hg (1012.0 mb)
Winds: calm
Visibility: 0.99 miles (1.59 km)
Ceiling: 3300 feet AGL
Clouds: few clouds at 400 feet AGL
scattered clouds at 1100 feet AGL
overcast cloud deck at 3300 feet AGL
Weather: -RA BR  (light rain, mist)

METAR text: ZGKL 190500Z 00000MPS 2000 -DZ BR FEW005 SCT013 OVC033 16/15 Q1013 NOSIG
Conditions at: ZGKL (GUILIN , CN) observed 0500 UTC 19 March 2019
Temperature: 16.0°C (61°F)
Dewpoint: 15.0°C (59°F) [RH = 94%]
Pressure (altimeter): 29.91 inches Hg (1013.0 mb)
Winds: calm
Visibility: 1.24 miles (2.00 km)
Ceiling: 3300 feet AGL
Clouds: few clouds at 500 feet AGL
scattered clouds at 1300 feet AGL
overcast cloud deck at 3300 feet AGL
Weather: -DZ BR  (light drizzle, mist)

METAR text: ZGKL 190400Z VRB01MPS 2000 -DZ BR FEW005 SCT013 OVC033 15/15 Q1014 NOSIG
Conditions at: ZGKL (GUILIN , CN) observed 0400 UTC 19 March 2019
Temperature: 15.0°C (59°F)
Dewpoint: 15.0°C (59°F) [RH = 100%]
Pressure (altimeter): 29.94 inches Hg (1014.0 mb)
Winds: variable direction winds at 2 MPH (2 knots; 1.0 m/s)
Visibility: 1.24 miles (2.00 km)
Ceiling: 3300 feet AGL
Clouds: few clouds at 500 feet AGL
scattered clouds at 1300 feet AGL
overcast cloud deck at 3300 feet AGL
Weather: -DZ BR  (light drizzle, mist)

Forecast for: ZGKL (GUILIN , CN)
Text: TAF ZGKL 200911Z 2012/2112 18004MPS 6000 BKN040 TX26/2107Z TN18/2022Z
Forecast period: 1200 UTC 20 March 2019 to 1200 UTC 21 March 2019
Forecast type: FROM: standard forecast or significant change
Winds: from the S (180 degrees) at 9 MPH (8 knots; 4.1 m/s)
Visibility: 4 miles (6 km)
Ceiling: 4000 feet AGL
Clouds: broken clouds at 4000 feet AGL
Weather: no significant weather forecast for this period